createdAt,value
2023-01-20T00:00:00.774Z,100180
2023-01-20T00:01:00.958Z,100190
2023-01-20T00:02:00.864Z,100180
2023-01-20T00:03:00.747Z,100180
2023-01-20T00:04:00.859Z,100170
2023-01-20T00:05:00.771Z,100170
2023-01-20T00:06:00.888Z,100170
2023-01-20T00:07:00.779Z,100160
2023-01-20T00:08:00.882Z,100180
2023-01-20T00:09:01.988Z,100180
2023-01-20T00:10:00.790Z,100160
2023-01-20T00:11:04.393Z,100170
2023-01-20T00:12:00.780Z,100190
2023-01-20T00:13:00.791Z,100180
2023-01-20T00:14:01.380Z,100170
2023-01-20T00:15:00.757Z,100150
2023-01-20T00:16:01.734Z,100150
2023-01-20T00:17:00.766Z,100160
2023-01-20T00:18:00.752Z,100140
2023-01-20T00:19:01.232Z,100140
2023-01-20T00:20:01.019Z,100140
2023-01-20T00:21:03.126Z,100140
2023-01-20T00:22:00.749Z,100120
2023-01-20T00:23:00.764Z,100120
2023-01-20T00:24:00.788Z,100140
2023-01-20T00:25:00.778Z,100150
2023-01-20T00:26:09.370Z,100120
2023-01-20T00:27:00.768Z,100130
2023-01-20T00:28:00.763Z,100120
2023-01-20T00:29:00.744Z,100130
2023-01-20T00:30:01.009Z,100140
2023-01-20T00:31:10.793Z,100130
2023-01-20T00:32:00.778Z,100130
2023-01-20T00:33:00.774Z,100140
2023-01-20T00:34:01.164Z,100160
2023-01-20T00:35:00.768Z,100160
2023-01-20T00:36:00.798Z,100160
2023-01-20T00:37:00.771Z,100150
2023-01-20T00:38:00.745Z,100170
2023-01-20T00:39:01.284Z,100170
2023-01-20T00:40:00.757Z,100170
2023-01-20T00:41:01.025Z,100180
2023-01-20T00:42:00.979Z,100170
2023-01-20T00:43:00.747Z,100170
2023-01-20T00:44:00.785Z,100170
2023-01-20T00:45:00.835Z,100190
2023-01-20T00:46:00.874Z,100190
2023-01-20T00:47:00.915Z,100190
2023-01-20T00:48:00.780Z,100210
2023-01-20T00:49:00.806Z,100200
2023-01-20T00:50:00.778Z,100200
2023-01-20T00:51:01.150Z,100210
2023-01-20T00:52:00.782Z,100190
2023-01-20T00:53:00.917Z,100210
2023-01-20T00:54:00.769Z,100230
2023-01-20T00:55:00.794Z,100200
2023-01-20T00:56:00.823Z,100210
2023-01-20T00:57:00.802Z,100190
2023-01-20T00:58:00.851Z,100190
2023-01-20T00:59:00.809Z,100210
2023-01-20T01:00:00.786Z,100200
2023-01-20T01:01:01.131Z,100210
2023-01-20T01:02:01.139Z,100200
2023-01-20T01:03:00.843Z,100200
2023-01-20T01:04:00.912Z,100200
2023-01-20T01:05:00.867Z,100190
2023-01-20T01:06:04.779Z,100220
2023-01-20T01:07:00.759Z,100210
2023-01-20T01:08:00.895Z,100220
2023-01-20T01:09:00.788Z,100200
2023-01-20T01:10:00.850Z,100220
2023-01-20T01:11:00.888Z,100220
2023-01-20T01:12:00.775Z,100220
2023-01-20T01:13:01.674Z,100240
2023-01-20T01:14:00.759Z,100240
2023-01-20T01:15:01.305Z,100240
2023-01-20T01:16:00.859Z,100240
2023-01-20T01:17:00.862Z,100230
2023-01-20T01:18:01.046Z,100230
2023-01-20T01:19:00.796Z,100240
2023-01-20T01:20:00.866Z,100240
2023-01-20T01:21:05.373Z,100240
2023-01-20T01:22:00.778Z,100230
2023-01-20T01:23:00.818Z,100240
2023-01-20T01:24:00.781Z,100250
2023-01-20T01:25:00.826Z,100250
2023-01-20T01:26:01.001Z,100250
2023-01-20T01:27:00.821Z,100240
2023-01-20T01:28:00.760Z,100250
2023-01-20T01:29:00.789Z,100250
2023-01-20T01:30:00.774Z,100260
2023-01-20T01:31:01.710Z,100270
2023-01-20T01:32:00.970Z,100260
2023-01-20T01:33:00.784Z,100270
2023-01-20T01:34:00.765Z,100270
2023-01-20T01:35:00.748Z,100270
2023-01-20T01:36:01.931Z,100270
2023-01-20T01:37:01.014Z,100280
2023-01-20T01:38:00.783Z,100280
2023-01-20T01:39:00.775Z,100280
2023-01-20T01:40:00.803Z,100280
2023-01-20T01:41:00.771Z,100290
2023-01-20T01:42:00.777Z,100290
2023-01-20T01:43:00.866Z,100300
2023-01-20T01:44:01.808Z,100300
2023-01-20T01:45:11.898Z,100300
2023-01-20T01:46:01.152Z,100320
2023-01-20T01:47:01.170Z,100310
2023-01-20T01:48:00.886Z,100310
2023-01-20T01:49:03.665Z,100310
2023-01-20T01:50:00.998Z,100320
2023-01-20T01:51:03.340Z,100320
2023-01-20T01:52:02.190Z,100320
2023-01-20T01:53:00.811Z,100320
2023-01-20T01:54:04.622Z,100320
2023-01-20T01:55:01.477Z,100330
2023-01-20T01:56:01.549Z,100330
2023-01-20T01:57:00.931Z,100330
2023-01-20T01:58:01.875Z,100340
2023-01-20T01:59:01.581Z,100340
2023-01-20T02:00:01.740Z,100340
2023-01-20T02:01:00.862Z,100340
2023-01-20T02:02:01.052Z,100350
2023-01-20T02:03:00.992Z,100340
2023-01-20T02:04:10.651Z,100350
2023-01-20T02:05:01.415Z,100350
2023-01-20T02:06:01.333Z,100360
2023-01-20T02:07:04.484Z,100350
2023-01-20T02:08:01.754Z,100360
2023-01-20T02:09:01.618Z,100360
2023-01-20T02:10:01.017Z,100360
2023-01-20T02:11:00.767Z,100370
2023-01-20T02:12:03.019Z,100370
2023-01-20T02:13:01.735Z,100370
2023-01-20T02:14:00.918Z,100380
2023-01-20T02:15:02.287Z,100390
2023-01-20T02:16:10.707Z,100400
2023-01-20T02:17:10.649Z,100400
2023-01-20T02:18:00.753Z,100400
2023-01-20T02:19:00.799Z,100410
2023-01-20T02:20:10.639Z,100410
2023-01-20T02:21:10.646Z,100410
2023-01-20T02:22:10.630Z,100420
2023-01-20T02:23:10.632Z,100410
2023-01-20T02:24:00.762Z,100420
2023-01-20T02:25:06.104Z,100430
2023-01-20T02:26:10.619Z,100430
2023-01-20T02:27:07.340Z,100430
2023-01-20T02:28:00.752Z,100440
2023-01-20T02:29:10.649Z,100450
2023-01-20T02:30:08.197Z,100460
2023-01-20T02:31:04.264Z,100460
2023-01-20T02:32:10.614Z,100460
2023-01-20T02:33:10.638Z,100460
2023-01-20T02:34:03.901Z,100470
2023-01-20T02:35:00.755Z,100480
2023-01-20T02:36:05.329Z,100470
2023-01-20T02:37:06.484Z,100480
2023-01-20T02:38:07.139Z,100490
2023-01-20T02:39:10.613Z,100490
2023-01-20T02:40:04.105Z,100490
2023-01-20T02:41:10.799Z,100490
2023-01-20T02:42:07.023Z,100490
2023-01-20T02:43:00.726Z,100500
2023-01-20T02:44:10.642Z,100490
2023-01-20T02:45:10.610Z,100500
2023-01-20T02:46:07.607Z,100500
2023-01-20T02:47:06.847Z,100500
2023-01-20T02:48:04.316Z,100500
2023-01-20T02:49:10.673Z,100500
2023-01-20T02:50:10.636Z,100500
2023-01-20T02:51:00.814Z,100510
2023-01-20T02:52:04.233Z,100510
2023-01-20T02:53:02.133Z,100500
2023-01-20T02:54:05.212Z,100510
2023-01-20T02:55:04.323Z,100510
2023-01-20T02:56:00.876Z,100510
2023-01-20T02:57:02.925Z,100510
2023-01-20T02:58:10.657Z,100520
2023-01-20T02:59:05.504Z,100520
2023-01-20T03:00:05.942Z,100520
2023-01-20T03:01:02.694Z,100510
2023-01-20T03:02:07.986Z,100510
2023-01-20T03:03:02.757Z,100510
2023-01-20T03:04:01.947Z,100510
2023-01-20T03:05:03.863Z,100520
2023-01-20T03:06:03.092Z,100520
2023-01-20T03:07:02.517Z,100520
2023-01-20T03:08:03.889Z,100520
2023-01-20T03:09:03.338Z,100520
2023-01-20T03:10:04.742Z,100520
2023-01-20T03:11:03.020Z,100530
2023-01-20T03:12:06.532Z,100530
2023-01-20T03:13:05.473Z,100530
2023-01-20T03:14:03.804Z,100520
2023-01-20T03:15:01.256Z,100530
2023-01-20T03:16:05.053Z,100530
2023-01-20T03:17:02.194Z,100540
2023-01-20T03:18:00.787Z,100540
2023-01-20T03:19:01.119Z,100540
2023-01-20T03:20:01.083Z,100540
2023-01-20T03:21:02.064Z,100540
2023-01-20T03:22:00.890Z,100550
2023-01-20T03:23:00.814Z,100550
2023-01-20T03:24:02.007Z,100560
2023-01-20T03:25:02.120Z,100560
2023-01-20T03:26:05.165Z,100560
2023-01-20T03:27:00.834Z,100570
2023-01-20T03:28:00.758Z,100560
2023-01-20T03:29:04.033Z,100570
2023-01-20T03:30:00.811Z,100570
2023-01-20T03:31:05.208Z,100570
2023-01-20T03:32:02.527Z,100570
2023-01-20T03:33:01.069Z,100570
2023-01-20T03:34:02.725Z,100580
2023-01-20T03:35:00.919Z,100580
2023-01-20T03:36:01.283Z,100580
2023-01-20T03:37:02.495Z,100590
2023-01-20T03:38:00.915Z,100590
2023-01-20T03:39:00.830Z,100590
2023-01-20T03:40:00.836Z,100590
2023-01-20T03:41:05.517Z,100590
2023-01-20T03:42:08.022Z,100590
2023-01-20T03:43:05.449Z,100590
2023-01-20T03:44:00.731Z,100590
2023-01-20T03:45:07.950Z,100600
2023-01-20T03:46:04.738Z,100600
2023-01-20T03:47:08.854Z,100600
2023-01-20T03:48:10.618Z,100600
2023-01-20T03:49:10.644Z,100600
2023-01-20T03:50:10.653Z,100600
2023-01-20T03:51:08.480Z,100610
2023-01-20T03:52:04.156Z,100600
2023-01-20T03:53:05.823Z,100610
2023-01-20T03:54:05.959Z,100610
2023-01-20T03:55:03.983Z,100610
2023-01-20T03:56:01.790Z,100610
2023-01-20T03:57:05.386Z,100610
2023-01-20T03:58:03.326Z,100620
2023-01-20T03:59:01.783Z,100610
2023-01-20T04:00:02.040Z,100620
2023-01-20T04:01:03.888Z,100620
2023-01-20T04:02:01.875Z,100620
2023-01-20T04:03:02.704Z,100620
2023-01-20T04:04:02.047Z,100630
2023-01-20T04:05:02.049Z,100630
2023-01-20T04:06:03.273Z,100630
2023-01-20T04:08:02.583Z,100640
2023-01-20T04:09:04.124Z,100640
2023-01-20T04:10:05.080Z,100640
2023-01-20T04:11:03.620Z,100650
2023-01-20T04:12:00.881Z,100650
2023-01-20T04:13:00.786Z,100650
2023-01-20T04:14:01.054Z,100650
2023-01-20T04:15:00.860Z,100660
2023-01-20T04:16:01.947Z,100650
2023-01-20T04:17:02.609Z,100660
2023-01-20T04:18:10.645Z,100660
2023-01-20T04:19:00.845Z,100660
2023-01-20T04:20:05.576Z,100670
2023-01-20T04:21:02.368Z,100670
2023-01-20T04:22:10.649Z,100670
2023-01-20T04:23:01.548Z,100670
2023-01-20T04:24:10.730Z,100670
2023-01-20T04:25:06.619Z,100680
2023-01-20T04:26:00.915Z,100680
2023-01-20T04:27:00.806Z,100680
2023-01-20T04:28:00.777Z,100670
2023-01-20T04:29:00.781Z,100680
2023-01-20T04:30:00.784Z,100670
2023-01-20T04:31:01.416Z,100680
2023-01-20T04:32:01.404Z,100680
2023-01-20T04:33:00.769Z,100680
2023-01-20T04:34:01.550Z,100680
2023-01-20T04:35:00.771Z,100680
2023-01-20T04:36:00.767Z,100680
2023-01-20T04:37:00.778Z,100680
2023-01-20T04:38:00.788Z,100690
2023-01-20T04:39:00.787Z,100680
2023-01-20T04:40:00.821Z,100690
2023-01-20T04:41:03.474Z,100690
2023-01-20T04:42:01.054Z,100690
2023-01-20T04:43:00.786Z,100690
2023-01-20T04:44:00.741Z,100690
2023-01-20T04:45:00.811Z,100700
2023-01-20T04:46:00.764Z,100690
2023-01-20T04:47:00.806Z,100690
2023-01-20T04:48:04.508Z,100690
2023-01-20T04:49:00.783Z,100690
2023-01-20T04:50:00.769Z,100700
2023-01-20T04:51:03.309Z,100690
2023-01-20T04:52:00.820Z,100700
2023-01-20T04:53:01.036Z,100700
2023-01-20T04:54:00.758Z,100700
2023-01-20T04:55:01.381Z,100700
2023-01-20T04:56:00.740Z,100710
2023-01-20T04:57:00.752Z,100710
2023-01-20T04:58:00.970Z,100710
2023-01-20T04:59:00.747Z,100710
2023-01-20T05:00:01.027Z,100710
2023-01-20T05:01:01.274Z,100710
2023-01-20T05:02:00.863Z,100720
2023-01-20T05:03:00.833Z,100720
2023-01-20T05:04:01.067Z,100720
2023-01-20T05:05:00.731Z,100720
2023-01-20T05:06:00.786Z,100730
2023-01-20T05:07:00.772Z,100730
2023-01-20T05:08:00.751Z,100720
2023-01-20T05:09:00.887Z,100730
2023-01-20T05:10:00.827Z,100740
2023-01-20T05:11:00.784Z,100740
2023-01-20T05:12:00.796Z,100750
2023-01-20T05:13:01.042Z,100750
2023-01-20T05:14:00.777Z,100760
2023-01-20T05:15:01.044Z,100760
2023-01-20T05:16:02.981Z,100770
2023-01-20T05:17:00.766Z,100780
2023-01-20T05:18:00.824Z,100780
2023-01-20T05:19:00.763Z,100790
2023-01-20T05:20:00.759Z,100790
2023-01-20T05:21:01.985Z,100790
2023-01-20T05:22:00.764Z,100800
2023-01-20T05:23:01.543Z,100800
2023-01-20T05:24:01.005Z,100800
2023-01-20T05:25:00.746Z,100800
2023-01-20T05:26:00.961Z,100810
2023-01-20T05:27:00.959Z,100810
2023-01-20T05:28:00.763Z,100810
2023-01-20T05:29:00.781Z,100810
2023-01-20T05:30:00.907Z,100810
2023-01-20T05:31:00.874Z,100810
2023-01-20T05:32:00.777Z,100810
2023-01-20T05:33:00.800Z,100810
2023-01-20T05:34:00.764Z,100810
2023-01-20T05:35:00.747Z,100810
2023-01-20T05:36:03.742Z,100810
2023-01-20T05:37:00.891Z,100820
2023-01-20T05:38:00.740Z,100830
2023-01-20T05:39:00.835Z,100840
2023-01-20T05:40:00.808Z,100840
2023-01-20T05:41:01.488Z,100830
2023-01-20T05:42:01.082Z,100850
2023-01-20T05:43:01.213Z,100850
2023-01-20T05:44:00.742Z,100850
2023-01-20T05:45:00.907Z,100860
2023-01-20T05:46:01.097Z,100860
2023-01-20T05:47:01.188Z,100870
2023-01-20T05:48:01.050Z,100880
2023-01-20T05:49:00.754Z,100870
2023-01-20T05:50:00.847Z,100870
2023-01-20T05:51:00.750Z,100870
2023-01-20T05:52:00.776Z,100880
2023-01-20T05:53:00.776Z,100870
2023-01-20T05:54:00.782Z,100870
2023-01-20T05:55:00.777Z,100870
2023-01-20T05:56:01.233Z,100880
2023-01-20T05:57:00.722Z,100880
2023-01-20T05:58:01.473Z,100890
2023-01-20T05:59:00.930Z,100900
2023-01-20T06:00:00.752Z,100900
2023-01-20T06:01:04.873Z,100890
2023-01-20T06:02:00.869Z,100900
2023-01-20T06:03:01.143Z,100900
2023-01-20T06:04:00.891Z,100900
2023-01-20T06:05:00.834Z,100910
2023-01-20T06:06:01.690Z,100900
2023-01-20T06:07:00.774Z,100910
2023-01-20T06:08:00.743Z,100910
2023-01-20T06:09:00.928Z,100910
2023-01-20T06:10:00.928Z,100910
2023-01-20T06:11:00.768Z,100920
2023-01-20T06:12:00.773Z,100920
2023-01-20T06:13:00.828Z,100920
2023-01-20T06:14:00.764Z,100920
2023-01-20T06:15:00.842Z,100930
2023-01-20T06:16:00.936Z,100930
2023-01-20T06:17:00.797Z,100940
2023-01-20T06:18:00.754Z,100940
2023-01-20T06:19:00.785Z,100940
2023-01-20T06:20:01.223Z,100950
2023-01-20T06:21:01.009Z,100950
2023-01-20T06:22:00.747Z,100950
2023-01-20T06:23:00.775Z,100960
2023-01-20T06:24:00.748Z,100960
2023-01-20T06:25:00.788Z,100960
2023-01-20T06:26:02.012Z,100970
2023-01-20T06:27:00.770Z,100970
2023-01-20T06:28:00.921Z,100970
2023-01-20T06:29:00.755Z,100980
2023-01-20T06:30:00.899Z,100980
2023-01-20T06:31:02.051Z,100980
2023-01-20T06:32:00.891Z,100980
2023-01-20T06:33:00.748Z,100990
2023-01-20T06:34:00.763Z,100990
2023-01-20T06:35:00.785Z,100990
2023-01-20T06:36:01.197Z,100990
2023-01-20T06:37:00.730Z,100990
2023-01-20T06:38:01.119Z,100990
2023-01-20T06:39:00.740Z,101000
2023-01-20T06:40:00.746Z,101000
2023-01-20T06:41:03.064Z,101010
2023-01-20T06:42:00.729Z,101010
2023-01-20T06:43:00.873Z,101010
2023-01-20T06:44:00.820Z,101010
2023-01-20T06:45:00.755Z,101010
2023-01-20T06:46:01.424Z,101020
2023-01-20T06:47:00.852Z,101020
2023-01-20T06:48:00.740Z,101020
2023-01-20T06:49:00.906Z,101020
2023-01-20T06:50:00.818Z,101020
2023-01-20T06:51:01.752Z,101030
2023-01-20T06:52:00.853Z,101030
2023-01-20T06:53:00.759Z,101030
2023-01-20T06:54:00.867Z,101030
2023-01-20T06:55:00.768Z,101030
2023-01-20T06:56:00.763Z,101030
2023-01-20T06:57:00.774Z,101030
2023-01-20T06:58:00.895Z,101030
2023-01-20T06:59:00.787Z,101040
2023-01-20T07:00:00.814Z,101040
2023-01-20T07:01:05.748Z,101040
2023-01-20T07:02:00.892Z,101040
2023-01-20T07:03:00.776Z,101050
2023-01-20T07:04:00.813Z,101060
2023-01-20T07:05:00.955Z,101060
2023-01-20T07:06:02.346Z,101060
2023-01-20T07:07:00.818Z,101060
2023-01-20T07:08:00.754Z,101070
2023-01-20T07:09:00.823Z,101070
2023-01-20T07:10:01.232Z,101070
2023-01-20T07:11:00.770Z,101080
2023-01-20T07:12:00.771Z,101080
2023-01-20T07:13:00.784Z,101080
2023-01-20T07:14:01.105Z,101090
2023-01-20T07:15:00.812Z,101090
2023-01-20T07:16:00.904Z,101090
2023-01-20T07:17:00.767Z,101100
2023-01-20T07:18:00.751Z,101100
2023-01-20T07:19:00.929Z,101100
2023-01-20T07:20:00.786Z,101100
2023-01-20T07:21:00.756Z,101110
2023-01-20T07:22:00.760Z,101120
2023-01-20T07:23:01.161Z,101120
2023-01-20T07:24:01.207Z,101120
2023-01-20T07:25:00.903Z,101120
2023-01-20T07:26:02.225Z,101130
2023-01-20T07:27:01.024Z,101130
2023-01-20T07:28:00.756Z,101140
2023-01-20T07:29:00.772Z,101140
2023-01-20T07:30:00.816Z,101140
2023-01-20T07:31:04.127Z,101150
2023-01-20T07:32:00.811Z,101150
2023-01-20T07:33:00.957Z,101160
2023-01-20T07:34:00.968Z,101150
2023-01-20T07:35:00.742Z,101150
2023-01-20T07:36:00.913Z,101150
2023-01-20T07:37:00.731Z,101150
2023-01-20T07:38:01.027Z,101160
2023-01-20T07:39:00.817Z,101170
2023-01-20T07:40:00.860Z,101160
2023-01-20T07:41:04.818Z,101160
2023-01-20T07:42:00.893Z,101160
2023-01-20T07:43:02.877Z,101160
2023-01-20T07:44:00.759Z,101170
2023-01-20T07:45:00.770Z,101170
2023-01-20T07:46:02.695Z,101170
2023-01-20T07:47:00.776Z,101170
2023-01-20T07:48:00.752Z,101180
2023-01-20T07:49:01.057Z,101190
2023-01-20T07:50:00.756Z,101190
2023-01-20T07:51:02.454Z,101190
2023-01-20T07:52:00.760Z,101200
2023-01-20T07:53:00.966Z,101200
2023-01-20T07:54:00.760Z,101210
2023-01-20T07:55:00.761Z,101210
2023-01-20T07:56:01.710Z,101210
2023-01-20T07:57:00.823Z,101210
2023-01-20T07:58:00.903Z,101210
2023-01-20T07:59:00.789Z,101220
2023-01-20T08:00:01.143Z,101220
2023-01-20T08:01:09.117Z,101220
2023-01-20T08:02:00.799Z,101220
2023-01-20T08:03:00.749Z,101230
2023-01-20T08:04:00.872Z,101230
2023-01-20T08:05:00.875Z,101230
2023-01-20T08:06:01.571Z,101240
2023-01-20T08:07:01.072Z,101240
2023-01-20T08:08:00.763Z,101240
2023-01-20T08:09:00.809Z,101240
2023-01-20T08:10:00.852Z,101240
2023-01-20T08:11:01.624Z,101240
2023-01-20T08:12:00.772Z,101250
2023-01-20T08:13:00.764Z,101250
2023-01-20T08:14:00.743Z,101260
2023-01-20T08:15:00.795Z,101260
2023-01-20T08:16:02.228Z,101260
2023-01-20T08:17:00.774Z,101260
2023-01-20T08:18:00.735Z,101260
2023-01-20T08:19:00.771Z,101260
2023-01-20T08:20:00.764Z,101270
2023-01-20T08:21:01.737Z,101270
2023-01-20T08:22:01.066Z,101280
2023-01-20T08:23:00.731Z,101270
2023-01-20T08:24:01.913Z,101280
2023-01-20T08:25:00.909Z,101280
2023-01-20T08:26:01.993Z,101280
2023-01-20T08:27:00.746Z,101290
2023-01-20T08:28:00.766Z,101290
2023-01-20T08:29:03.828Z,101290
2023-01-20T08:30:00.726Z,101290
2023-01-20T08:31:03.761Z,101290
2023-01-20T08:32:00.787Z,101300
2023-01-20T08:33:01.065Z,101300
2023-01-20T08:34:00.836Z,101300
2023-01-20T08:35:00.758Z,101300
2023-01-20T08:36:03.178Z,101300
2023-01-20T08:37:00.779Z,101310
2023-01-20T08:38:00.814Z,101310
2023-01-20T08:39:02.629Z,101310
2023-01-20T08:40:00.751Z,101320
2023-01-20T08:41:00.887Z,101320
2023-01-20T08:42:00.773Z,101320
2023-01-20T08:43:01.139Z,101320
2023-01-20T08:44:02.062Z,101320
2023-01-20T08:45:01.324Z,101330
2023-01-20T08:46:02.870Z,101330
2023-01-20T08:47:00.747Z,101330
2023-01-20T08:48:00.818Z,101340
2023-01-20T08:49:00.775Z,101340
2023-01-20T08:50:00.759Z,101340
2023-01-20T08:51:03.458Z,101340
2023-01-20T08:52:00.767Z,101350
2023-01-20T08:53:00.784Z,101360
2023-01-20T08:54:00.770Z,101360
2023-01-20T08:55:01.045Z,101360
2023-01-20T08:56:01.972Z,101360
2023-01-20T08:57:00.818Z,101360
2023-01-20T08:58:00.744Z,101360
2023-01-20T08:59:01.062Z,101360
2023-01-20T09:00:01.405Z,101370
2023-01-20T09:01:00.952Z,101360
2023-01-20T09:02:00.776Z,101370
2023-01-20T09:03:00.830Z,101370
2023-01-20T09:04:06.090Z,101370
2023-01-20T09:05:00.812Z,101370
2023-01-20T09:06:02.424Z,101380
2023-01-20T09:07:00.889Z,101380
2023-01-20T09:08:00.744Z,101370
2023-01-20T09:09:02.250Z,101370
2023-01-20T09:10:00.831Z,101370
2023-01-20T09:11:03.192Z,101370
2023-01-20T09:12:03.686Z,101380
2023-01-20T09:13:00.770Z,101380
2023-01-20T09:14:00.803Z,101380
2023-01-20T09:15:02.368Z,101390
2023-01-20T09:16:00.933Z,101390
2023-01-20T09:17:00.948Z,101400
2023-01-20T09:18:00.821Z,101400
2023-01-20T09:19:00.791Z,101400
2023-01-20T09:20:00.828Z,101400
2023-01-20T09:21:01.332Z,101400
2023-01-20T09:22:01.883Z,101410
2023-01-20T09:23:01.295Z,101410
2023-01-20T09:24:00.774Z,101410
2023-01-20T09:25:00.742Z,101410
2023-01-20T09:26:01.664Z,101410
2023-01-20T09:27:00.756Z,101410
2023-01-20T09:28:00.905Z,101410
2023-01-20T09:29:00.732Z,101410
2023-01-20T09:30:01.094Z,101410
2023-01-20T09:31:02.542Z,101410
2023-01-20T09:32:00.851Z,101420
2023-01-20T09:33:00.848Z,101420
2023-01-20T09:34:00.846Z,101420
2023-01-20T09:35:00.849Z,101420
2023-01-20T09:36:01.321Z,101420
2023-01-20T09:37:01.408Z,101420
2023-01-20T09:38:00.895Z,101420
2023-01-20T09:39:00.995Z,101420
2023-01-20T09:40:00.827Z,101420
2023-01-20T09:41:10.416Z,101420
2023-01-20T09:42:05.711Z,101420
2023-01-20T09:43:01.754Z,101420
2023-01-20T09:44:01.800Z,101410
2023-01-20T09:45:09.594Z,101410
2023-01-20T09:46:10.738Z,101410
2023-01-20T09:47:04.107Z,101410
2023-01-20T09:48:07.332Z,101410
2023-01-20T09:49:08.371Z,101410
2023-01-20T09:50:10.624Z,101410
2023-01-20T09:51:04.756Z,101410
2023-01-20T09:52:08.740Z,101410
2023-01-20T09:53:03.951Z,101420
2023-01-20T09:54:10.752Z,101410
2023-01-20T09:55:06.197Z,101410
2023-01-20T09:56:03.479Z,101410
2023-01-20T09:57:01.322Z,101420
2023-01-20T09:58:07.350Z,101420
2023-01-20T09:59:07.361Z,101420
2023-01-20T10:00:04.397Z,101420
2023-01-20T10:01:10.686Z,101410
2023-01-20T10:02:03.408Z,101420
2023-01-20T10:03:06.196Z,101420
2023-01-20T10:04:05.433Z,101420
2023-01-20T10:05:04.151Z,101420
2023-01-20T10:06:01.249Z,101420
2023-01-20T10:07:10.621Z,101420
2023-01-20T10:08:03.570Z,101430
2023-01-20T10:09:10.516Z,101430
2023-01-20T10:10:10.646Z,101430
2023-01-20T10:11:04.139Z,101430
2023-01-20T10:12:06.231Z,101430
2023-01-20T10:13:01.765Z,101430
2023-01-20T10:14:10.654Z,101430
2023-01-20T10:15:05.392Z,101430
2023-01-20T10:16:04.288Z,101430
2023-01-20T10:17:01.745Z,101420
2023-01-20T10:18:04.263Z,101420
2023-01-20T10:19:09.262Z,101420
2023-01-20T10:20:04.139Z,101420
2023-01-20T10:21:06.248Z,101420
2023-01-20T10:22:01.780Z,101420
2023-01-20T10:23:02.029Z,101420
2023-01-20T10:24:07.422Z,101420
2023-01-20T10:25:10.658Z,101420
2023-01-20T10:26:04.114Z,101420
2023-01-20T10:27:01.570Z,101420
2023-01-20T10:28:06.019Z,101420
2023-01-20T10:29:01.855Z,101420
2023-01-20T10:30:10.632Z,101420
2023-01-20T10:31:03.125Z,101420
2023-01-20T10:32:02.505Z,101420
2023-01-20T10:33:04.750Z,101420
2023-01-20T10:34:07.287Z,101420
2023-01-20T10:35:06.964Z,101420
2023-01-20T10:36:00.788Z,101430
2023-01-20T10:37:05.397Z,101420
2023-01-20T10:38:01.871Z,101430
2023-01-20T10:39:03.376Z,101420
2023-01-20T10:40:10.654Z,101420
2023-01-20T10:41:10.696Z,101430
2023-01-20T10:42:03.585Z,101430
2023-01-20T10:43:03.672Z,101430
2023-01-20T10:44:01.468Z,101430
2023-01-20T10:45:01.125Z,101430
2023-01-20T10:46:12.488Z,101420
2023-01-20T10:47:01.781Z,101420
2023-01-20T10:48:10.685Z,101430
2023-01-20T10:49:08.292Z,101430
2023-01-20T10:50:08.143Z,101430
2023-01-20T10:51:00.739Z,101420
2023-01-20T10:52:04.116Z,101430
2023-01-20T10:53:12.763Z,101420
2023-01-20T10:54:10.767Z,101430
2023-01-20T10:55:08.108Z,101420
2023-01-20T10:56:05.767Z,101420
2023-01-20T10:57:03.091Z,101420
2023-01-20T10:58:09.326Z,101420
2023-01-20T10:59:03.201Z,101420
2023-01-20T11:00:03.883Z,101420
2023-01-20T11:01:03.401Z,101420
2023-01-20T11:02:12.416Z,101420
2023-01-20T11:03:01.656Z,101420
2023-01-20T11:04:00.788Z,101420
2023-01-20T11:05:02.262Z,101420
2023-01-20T11:06:02.181Z,101420
2023-01-20T11:07:01.149Z,101420
2023-01-20T11:08:01.235Z,101420
2023-01-20T11:09:10.617Z,101410
2023-01-20T11:10:10.619Z,101410
2023-01-20T11:11:09.518Z,101410
2023-01-20T11:12:02.651Z,101410
2023-01-20T11:13:01.291Z,101410
2023-01-20T11:14:00.897Z,101420
2023-01-20T11:15:00.824Z,101420
2023-01-20T11:16:03.322Z,101420
2023-01-20T11:17:03.024Z,101410
2023-01-20T11:18:10.634Z,101410
2023-01-20T11:19:03.506Z,101410
2023-01-20T11:20:04.253Z,101410
2023-01-20T11:21:03.172Z,101420
2023-01-20T11:22:10.665Z,101420
2023-01-20T11:23:00.781Z,101420
2023-01-20T11:24:00.868Z,101420
2023-01-20T11:25:01.701Z,101420
2023-01-20T11:26:10.618Z,101420
2023-01-20T11:27:03.512Z,101420
2023-01-20T11:28:00.805Z,101420
2023-01-20T11:29:02.640Z,101410
2023-01-20T11:30:03.840Z,101420
2023-01-20T11:31:02.017Z,101410
2023-01-20T11:32:00.801Z,101420
2023-01-20T11:33:10.855Z,101420
2023-01-20T11:34:02.366Z,101430
2023-01-20T11:35:10.635Z,101420
2023-01-20T11:36:02.059Z,101420
2023-01-20T11:37:04.072Z,101420
2023-01-20T11:38:10.625Z,101420
2023-01-20T11:39:00.833Z,101420
2023-01-20T11:40:10.619Z,101420
2023-01-20T11:41:00.857Z,101420
2023-01-20T11:42:10.707Z,101420
2023-01-20T11:43:00.773Z,101420
2023-01-20T11:44:00.776Z,101430
2023-01-20T11:45:19.800Z,101420
2023-01-20T11:46:10.670Z,101430
2023-01-20T11:47:10.783Z,101440
2023-01-20T11:48:01.779Z,101440
2023-01-20T11:49:10.616Z,101430
2023-01-20T11:50:04.121Z,101430
2023-01-20T11:51:01.344Z,101430
2023-01-20T11:52:00.849Z,101430
2023-01-20T11:53:10.684Z,101430
2023-01-20T11:54:10.643Z,101420
2023-01-20T11:55:08.159Z,101420
2023-01-20T11:56:04.636Z,101420
2023-01-20T11:57:02.845Z,101420
2023-01-20T11:58:02.696Z,101420
2023-01-20T11:59:02.528Z,101410
2023-01-20T12:00:00.812Z,101420
2023-01-20T12:01:02.465Z,101410
2023-01-20T12:02:10.646Z,101410
2023-01-20T12:03:01.797Z,101410
2023-01-20T12:04:10.662Z,101410
2023-01-20T12:05:06.777Z,101410
2023-01-20T12:06:00.783Z,101400
2023-01-20T12:07:04.945Z,101400
2023-01-20T12:08:02.408Z,101400
2023-01-20T12:09:04.032Z,101390
2023-01-20T12:10:03.448Z,101400
2023-01-20T12:11:03.966Z,101400
2023-01-20T12:12:03.698Z,101410
2023-01-20T12:13:04.740Z,101410
2023-01-20T12:14:01.819Z,101410
2023-01-20T12:15:04.071Z,101410
2023-01-20T12:16:02.507Z,101410
2023-01-20T12:17:01.762Z,101410
2023-01-20T12:18:05.022Z,101410
2023-01-20T12:19:03.462Z,101410
2023-01-20T12:20:00.760Z,101400
2023-01-20T12:21:03.957Z,101400
2023-01-20T12:22:03.303Z,101400
2023-01-20T12:23:00.743Z,101400
2023-01-20T12:24:03.273Z,101400
2023-01-20T12:25:10.842Z,101390
2023-01-20T12:26:02.443Z,101400
2023-01-20T12:27:01.029Z,101400
2023-01-20T12:28:09.135Z,101400
2023-01-20T12:29:04.578Z,101400